Time;durP1;ratioP1;P1;durP2;ratioP2;P2;SDS_P1;SDS_P2;PMS_P1;PMS_P2;Temp;Humidity;BMP_temperature;BMP_pressure;BME280_temperature;BME280_humidity;BME280_pressure;Samples;Min_cycle;Max_cycle;Signal;HPM_P1;HPM_P2
2024/02/24 00:00:32;;;;;;;28.55;16.30;;;;;;;5.34;92.89;99911.72;5027148;28;20035;-79
2024/02/24 00:02:57;;;;;;;28.08;16.67;;;;;;;5.76;88.30;99879.16;5026783;28;20100;-79
2024/02/24 00:05:26;;;;;;;29.92;17.58;;;;;;;6.19;89.38;99926.72;5027334;28;20053;-79
2024/02/24 00:07:52;;;;;;;30.98;18.88;;;;;;;6.26;90.62;99918.81;5032972;28;20550;-79
2024/02/24 00:10:18;;;;;;;31.83;19.17;;;;;;;6.25;90.46;99914.50;5046798;28;20112;-79
2024/02/24 00:12:44;;;;;;;33.08;18.58;;;;;;;6.18;92.79;99926.91;5047208;28;20112;-79
2024/02/24 00:15:10;;;;;;;30.33;18.10;;;;;;;6.17;93.50;99914.66;5031126;28;20120;-80
2024/02/24 00:17:38;;;;;;;31.50;18.88;;;;;;;6.43;91.36;99922.78;5027447;28;20079;-81
2024/02/24 00:20:05;;;;;;;33.80;19.67;;;;;;;6.28;91.55;99879.72;5026129;28;20036;-81
2024/02/24 00:22:30;;;;;;;35.22;20.92;;;;;;;6.35;94.02;99922.94;5026704;28;20060;-80
2024/02/24 00:24:56;;;;;;;34.28;20.88;;;;;;;6.62;93.17;99934.50;5032626;28;20067;-78
2024/02/24 00:27:21;;;;;;;32.92;19.65;;;;;;;6.38;91.12;99927.03;5036414;28;20056;-79
2024/02/24 00:29:47;;;;;;;33.55;20.75;;;;;;;6.47;95.29;99922.41;5027218;28;20033;-80
2024/02/24 00:32:12;;;;;;;37.15;22.77;;;;;;;6.76;94.37;99890.34;5027080;28;20029;-79
2024/02/24 00:34:37;;;;;;;33.63;19.10;;;;;;;6.34;90.90;99892.19;5026614;28;20013;-79
2024/02/24 00:37:03;;;;;;;33.92;20.27;;;;;;;6.84;91.68;99940.53;5027110;28;20573;-81
2024/02/24 00:39:30;;;;;;;33.03;20.05;;;;;;;6.57;97.14;99933.47;5030686;28;20029;-79
2024/02/24 00:41:55;;;;;;;36.35;20.02;;;;;;;6.74;93.33;99913.59;5033196;28;20025;-79
2024/02/24 00:44:21;;;;;;;32.70;20.75;;;;;;;6.99;93.29;99923.66;5033366;28;20666;-80
2024/02/24 00:46:46;;;;;;;31.27;18.40;;;;;;;6.92;94.50;99912.19;5049755;28;20116;-80
2024/02/24 00:49:11;;;;;;;32.92;20.33;;;;;;;6.38;97.06;99914.59;5033288;28;20049;-80
2024/02/24 00:51:37;;;;;;;33.00;18.75;;;;;;;6.18;96.71;99901.25;5033864;28;20457;-80
2024/02/24 00:54:04;;;;;;;31.27;18.17;;;;;;;6.23;95.65;99892.72;5031822;28;20418;-79
2024/02/24 00:56:29;;;;;;;27.38;17.65;;;;;;;6.42;96.92;99884.06;5039935;28;20053;-79
2024/02/24 00:58:55;;;;;;;28.10;17.50;;;;;;;6.42;100.00;99891.22;5035110;28;20040;-80
2024/02/24 01:01:21;;;;;;;25.80;16.83;;;;;;;5.73;97.09;99894.59;5033547;28;20037;-79
2024/02/24 01:03:46;;;;;;;28.13;16.05;;;;;;;5.33;92.41;99920.66;5033191;28;20039;-78
2024/02/24 01:06:12;;;;;;;26.60;16.73;;;;;;;5.71;90.83;99909.81;5032167;28;20025;-80
2024/02/24 01:08:37;;;;;;;28.45;17.80;;;;;;;5.15;93.96;99898.13;5033423;28;20041;-79
2024/02/24 01:11:05;;;;;;;28.13;16.30;;;;;;;5.33;95.63;99910.09;5032941;28;20025;-80
2024/02/24 01:13:30;;;;;;;27.63;15.80;;;;;;;5.77;94.12;99911.72;5032225;28;20124;-78
2024/02/24 01:15:56;;;;;;;27.52;15.80;;;;;;;5.91;95.28;99918.75;5032368;28;20495;-79
2024/02/24 01:18:23;;;;;;;29.30;16.42;;;;;;;5.54;97.21;99890.78;5032954;28;20052;-78
2024/02/24 01:20:49;;;;;;;34.25;19.00;;;;;;;5.58;95.29;99923.78;5012894;28;20141;-80
2024/02/24 01:23:16;;;;;;;36.20;19.80;;;;;;;5.51;94.59;99880.56;5013277;28;20121;-81
2024/02/24 01:25:43;;;;;;;33.38;17.88;;;;;;;5.67;98.52;99888.22;5029436;28;20140;-80
2024/02/24 01:28:22;;;;;;;31.75;16.50;;;;;;;5.32;100.00;99905.81;5104395;27;20380;-79
2024/02/24 01:30:49;;;;;;;31.50;17.73;;;;;;;5.60;100.00;99890.81;5104258;28;20035;-78
2024/02/24 01:33:14;;;;;;;30.05;17.05;;;;;;;5.82;100.00;99904.00;5104586;28;20736;-79
2024/02/24 01:35:39;;;;;;;29.92;18.50;;;;;;;5.78;100.00;99882.41;5104078;28;20028;-80
2024/02/24 01:38:05;;;;;;;34.28;16.35;;;;;;;5.73;100.00;99884.00;5085963;28;20028;-79
2024/02/24 01:40:31;;;;;;;25.98;15.48;;;;;;;5.83;100.00;99911.75;5104468;28;20023;-80
2024/02/24 01:42:57;;;;;;;26.10;15.65;;;;;;;5.72;100.00;99887.63;5086345;28;20530;-79
2024/02/24 01:45:22;;;;;;;25.17;15.55;;;;;;;5.72;100.00;99882.34;5104844;28;20046;-79
2024/02/24 01:47:49;;;;;;;25.90;15.15;;;;;;;5.55;100.00;99887.09;5085775;28;20111;-80
2024/02/24 01:50:15;;;;;;;26.65;15.88;;;;;;;5.52;100.00;99861.84;5104349;28;20127;-79
2024/02/24 01:52:45;;;;;;;25.75;14.73;;;;;;;5.50;100.00;99866.53;5104265;28;20456;-79
2024/02/24 01:55:10;;;;;;;23.10;13.60;;;;;;;5.50;100.00;99885.03;5104386;28;20105;-79
2024/02/24 01:57:43;;;;;;;27.98;16.50;;;;;;;5.29;100.00;99850.66;5104169;28;20450;-79
2024/02/24 02:00:09;;;;;;;25.65;14.75;;;;;;;5.01;100.00;99854.88;5103950;28;20489;-80
2024/02/24 02:02:36;;;;;;;26.08;15.45;;;;;;;5.17;100.00;99897.91;5104088;28;20103;-79
2024/02/24 02:05:02;;;;;;;30.35;17.63;;;;;;;5.53;100.00;99897.88;5103962;28;20028;-81
2024/02/24 02:07:27;;;;;;;30.83;16.88;;;;;;;5.21;100.00;99875.38;5085209;28;20342;-80
2024/02/24 02:09:58;;;;;;;32.05;18.55;;;;;;;5.49;100.00;99887.88;5103034;28;20027;-79
2024/02/24 02:12:25;;;;;;;24.27;13.82;;;;;;;5.14;100.00;99907.03;5085685;28;20043;-80
2024/02/24 02:14:50;;;;;;;31.80;18.23;;;;;;;5.06;100.00;99877.28;5103692;28;20028;-80
2024/02/24 02:17:17;;;;;;;38.90;19.90;;;;;;;5.36;100.00;99889.38;5103489;28;20023;-79
2024/02/24 02:19:42;;;;;;;38.85;20.17;;;;;;;5.49;100.00;99896.59;5103163;28;20112;-79
2024/02/24 02:22:11;;;;;;;33.67;18.33;;;;;;;5.68;100.00;99902.25;5103515;28;20053;-81
2024/02/24 02:24:40;;;;;;;33.28;18.35;;;;;;;5.12;100.00;99845.63;5103692;28;20023;-79
2024/02/24 02:27:08;;;;;;;;;;;;;;;5.51;100.00;99907.00;5103704;28;20746;-79
2024/02/24 02:29:33;;;;;;;29.20;16.77;;;;;;;4.61;100.00;99880.84;5103795;28;19916;-79
2024/02/24 02:32:00;;;;;;;29.58;17.08;;;;;;;4.39;100.00;99866.75;5103440;28;20120;-78
2024/02/24 02:34:25;;;;;;;36.05;20.75;;;;;;;5.04;100.00;99874.81;5102810;28;20404;-78
2024/02/24 02:36:50;;;;;;;35.97;20.50;;;;;;;5.04;100.00;99882.75;5103174;28;20041;-80
2024/02/24 02:39:16;;;;;;;38.05;19.88;;;;;;;5.29;100.00;99892.97;5073926;28;20039;-79
2024/02/24 02:41:41;;;;;;;26.67;16.27;;;;;;;4.76;100.00;99903.75;5071519;28;20031;-80
2024/02/24 02:44:06;;;;;;;36.65;17.70;;;;;;;4.50;100.00;99867.31;5089613;28;20086;-79
2024/02/24 02:46:32;;;;;;;30.35;17.35;;;;;;;5.00;100.00;99931.69;5071313;28;20028;-80
2024/02/24 02:48:57;;;;;;;33.63;20.27;;;;;;;4.89;100.00;99926.91;5089814;28;20059;-79
2024/02/24 02:51:22;;;;;;;30.73;18.27;;;;;;;5.05;100.00;99913.47;5089223;28;20024;-80
2024/02/24 02:53:48;;;;;;;34.85;18.70;;;;;;;5.01;100.00;99888.41;5071538;28;20393;-79
2024/02/24 02:56:13;;;;;;;35.75;20.00;;;;;;;4.60;100.00;99920.66;5071414;28;20035;-79
2024/02/24 02:58:39;;;;;;;24.55;13.52;;;;;;;3.64;100.00;99912.53;5089143;28;20952;-80
2024/02/24 03:01:08;;;;;;;26.25;13.90;;;;;;;4.09;100.00;99934.56;5088962;28;20099;-79
2024/02/24 03:03:33;;;;;;;24.38;14.68;;;;;;;4.09;100.00;99910.00;5070909;28;20024;-81
2024/02/24 03:06:01;;;;;;;26.33;15.25;;;;;;;4.27;100.00;99915.75;5089314;28;20032;-79
2024/02/24 03:08:26;;;;;;;32.22;18.60;;;;;;;4.50;100.00;99909.56;5089068;28;20081;-79
2024/02/24 03:10:51;;;;;;;30.13;17.63;;;;;;;4.42;100.00;99876.94;5088758;28;20039;-80
2024/02/24 03:13:17;;;;;;;29.30;16.67;;;;;;;4.62;100.00;99879.03;5089036;28;20064;-80
2024/02/24 03:15:42;;;;;;;34.60;17.08;;;;;;;4.83;100.00;99905.47;5089087;28;20507;-80
2024/02/24 03:18:08;;;;;;;30.08;16.58;;;;;;;4.93;100.00;99894.63;5088632;28;20784;-80
2024/02/24 03:20:33;;;;;;;28.95;18.05;;;;;;;4.95;100.00;99928.81;5088784;28;20030;-79
2024/02/24 03:22:58;;;;;;;29.65;16.27;;;;;;;4.90;100.00;99933.81;5088286;28;20093;-80
2024/02/24 03:25:24;;;;;;;32.50;17.90;;;;;;;4.70;100.00;99910.63;5088624;28;20500;-79
2024/02/24 03:27:49;;;;;;;38.38;20.70;;;;;;;4.73;100.00;99904.97;5088836;28;20040;-79
2024/02/24 03:30:15;;;;;;;45.22;23.25;;;;;;;4.57;100.00;99918.38;5088628;28;20854;-79
2024/02/24 03:32:40;;;;;;;43.85;22.83;;;;;;;4.52;100.00;99894.34;5088679;28;20046;-80
2024/02/24 03:35:07;;;;;;;37.85;19.77;;;;;;;4.59;100.00;99900.50;5070739;28;20024;-79
2024/02/24 03:37:32;;;;;;;31.73;20.13;;;;;;;4.80;100.00;99921.72;5089035;28;20107;-79
2024/02/24 03:39:58;;;;;;;33.88;18.67;;;;;;;4.74;100.00;99943.59;5088799;28;20111;-80
2024/02/24 03:42:23;;;;;;;32.45;18.27;;;;;;;4.48;100.00;99928.22;5088426;28;20047;-78
2024/02/24 03:44:48;;;;;;;31.40;16.85;;;;;;;4.48;100.00;99951.97;5087969;28;20020;-78
2024/02/24 03:47:14;;;;;;;31.65;16.30;;;;;;;4.27;100.00;99947.41;5088380;28;20525;-78
2024/02/24 03:49:41;;;;;;;28.17;17.23;;;;;;;4.27;100.00;99921.03;5087134;28;20055;-78
2024/02/24 03:52:07;;;;;;;28.52;16.27;;;;;;;4.48;100.00;99932.69;5087226;28;20530;-78
2024/02/24 03:54:32;;;;;;;26.85;15.73;;;;;;;3.77;100.00;99919.84;5070030;28;20028;-79
2024/02/24 03:56:57;;;;;;;28.00;16.33;;;;;;;4.00;100.00;99972.56;5088289;28;20463;-79
2024/02/24 03:59:23;;;;;;;29.08;15.23;;;;;;;3.70;100.00;99961.09;5087899;28;20032;-79
2024/02/24 04:01:48;;;;;;;27.67;14.73;;;;;;;3.91;100.00;99949.91;5087712;28;20610;-78
2024/02/24 04:04:14;;;;;;;28.48;16.17;;;;;;;4.22;100.00;99920.72;5087533;28;20024;-79
2024/02/24 04:06:42;;;;;;;27.45;15.57;;;;;;;4.55;100.00;99967.91;5087500;28;20046;-78
2024/02/24 04:09:08;;;;;;;29.30;16.35;;;;;;;4.71;100.00;99983.56;5088007;28;20048;-80
2024/02/24 04:11:35;;;;;;;24.52;15.15;;;;;;;4.58;100.00;99927.94;5087648;28;20028;-79
2024/02/24 04:14:00;;;;;;;28.50;15.68;;;;;;;4.17;100.00;99958.22;5087589;28;21142;-78
2024/02/24 04:16:26;;;;;;;26.08;14.95;;;;;;;3.22;100.00;99964.69;5087374;28;20733;-79
2024/02/24 04:18:51;;;;;;;29.25;15.05;;;;;;;3.52;100.00;99946.41;5087611;28;20043;-77
2024/02/24 04:21:19;;;;;;;29.02;17.90;;;;;;;3.67;100.00;99966.72;5087365;28;20013;-78
2024/02/24 04:23:44;;;;;;;26.38;15.40;;;;;;;4.07;100.00;99967.41;5087355;28;20039;-79
2024/02/24 04:26:10;;;;;;;25.60;14.38;;;;;;;2.55;100.00;99928.28;5087121;28;20020;-79
2024/02/24 04:28:35;;;;;;;26.33;15.18;;;;;;;2.36;100.00;99940.03;5069070;28;20039;-79
2024/02/24 04:31:00;;;;;;;23.15;13.95;;;;;;;2.25;100.00;99952.72;5068928;28;20197;-80
2024/02/24 04:33:26;;;;;;;28.55;15.93;;;;;;;2.41;100.00;99971.94;5087198;28;20028;-77
2024/02/24 04:35:51;;;;;;;28.13;15.18;;;;;;;2.89;100.00;99973.78;5087682;28;20397;-79
2024/02/24 04:38:17;;;;;;;27.25;14.98;;;;;;;2.04;100.00;99964.59;5087557;28;20028;-79
2024/02/24 04:40:42;;;;;;;30.38;16.45;;;;;;;2.55;100.00;99964.34;5068862;28;20032;-78
2024/02/24 04:43:07;;;;;;;29.00;15.50;;;;;;;2.95;100.00;99967.81;5087144;28;20038;-80
2024/02/24 04:45:33;;;;;;;30.90;17.33;;;;;;;3.36;100.00;99980.78;5087236;28;20036;-78
2024/02/24 04:47:58;;;;;;;28.52;16.65;;;;;;;3.15;100.00;99970.84;5087071;28;20024;-78
2024/02/24 04:50:24;;;;;;;34.38;21.30;;;;;;;2.68;100.00;99966.44;5068920;28;20036;-79
2024/02/24 04:52:49;;;;;;;26.58;16.45;;;;;;;2.25;100.00;100006.19;5086319;28;20024;-79
2024/02/24 04:55:14;;;;;;;28.67;15.93;;;;;;;2.41;100.00;99986.91;5087438;28;20028;-78
2024/02/24 04:57:40;;;;;;;40.65;20.27;;;;;;;3.39;100.00;100018.16;5068987;28;20027;-78
2024/02/24 05:00:06;;;;;;;75.50;39.03;;;;;;;2.89;100.00;100008.00;5086907;28;20036;-78
2024/02/24 05:02:31;;;;;;;29.88;15.77;;;;;;;2.24;100.00;99986.09;5086560;28;20028;-77
2024/02/24 05:04:56;;;;;;;34.88;18.90;;;;;;;2.94;100.00;100018.84;5087023;28;20436;-79
2024/02/24 05:07:23;;;;;;;26.48;15.65;;;;;;;2.74;100.00;100018.44;5086887;28;20024;-78
2024/02/24 05:09:48;;;;;;;31.25;17.85;;;;;;;3.14;100.00;100012.19;5068362;28;20034;-79
2024/02/24 05:12:14;;;;;;;34.22;20.02;;;;;;;3.20;100.00;100037.03;5068501;28;20028;-80
2024/02/24 05:14:40;;;;;;;34.75;19.48;;;;;;;3.34;100.00;100009.13;5086193;28;20111;-78
2024/02/24 05:17:07;;;;;;;35.13;20.02;;;;;;;3.73;100.00;100024.06;5068655;28;20489;-77
2024/02/24 05:19:33;;;;;;;30.85;18.33;;;;;;;3.67;100.00;100051.13;5086507;28;20032;-78
2024/02/24 05:21:58;;;;;;;32.33;18.90;;;;;;;2.73;100.00;100030.75;5086460;28;20020;-78
2024/02/24 05:24:24;;;;;;;31.65;18.42;;;;;;;2.56;100.00;100052.88;5087021;28;20032;-77
2024/02/24 05:26:49;;;;;;;31.98;16.67;;;;;;;2.20;100.00;100040.06;5086018;28;20185;-77
2024/02/24 05:29:16;;;;;;;36.08;18.70;;;;;;;2.49;100.00;100020.28;5086550;28;20107;-78
2024/02/24 05:31:41;;;;;;;34.92;20.27;;;;;;;2.74;100.00;100032.41;5086365;28;20023;-79
2024/02/24 05:34:07;;;;;;;37.75;21.15;;;;;;;2.86;100.00;100043.41;5086446;28;20031;-78
2024/02/24 05:36:35;;;;;;;39.10;21.80;;;;;;;3.61;100.00;100037.63;5086590;28;20028;-78
2024/02/24 05:39:00;;;;;;;38.70;23.08;;;;;;;3.39;100.00;100038.41;5086290;28;20158;-78
2024/02/24 05:41:26;;;;;;;33.80;22.10;;;;;;;3.83;100.00;100057.09;5086555;28;20118;-79
2024/02/24 05:43:52;;;;;;;33.22;19.05;;;;;;;3.95;100.00;100054.91;5086564;28;20050;-79
2024/02/24 05:46:17;;;;;;;31.48;19.30;;;;;;;4.21;100.00;100090.69;5086370;28;20085;-79
2024/02/24 05:48:43;;;;;;;30.42;17.27;;;;;;;4.39;100.00;100074.50;5068114;28;20016;-79
2024/02/24 05:51:10;;;;;;;75.95;44.15;;;;;;;4.47;100.00;100086.81;5086192;28;20028;-79
2024/02/24 05:53:37;;;;;;;71.50;52.63;;;;;;;4.86;100.00;100114.88;5085905;28;20024;-79
2024/02/24 05:56:02;;;;;;;80.53;58.85;;;;;;;5.11;100.00;100118.06;5068134;28;20059;-79
2024/02/24 05:58:28;;;;;;;58.85;48.70;;;;;;;5.06;100.00;100089.53;5086484;28;20117;-79
2024/02/24 06:00:54;;;;;;;38.13;27.30;;;;;;;5.33;100.00;100111.06;5085931;28;20438;-78
2024/02/24 06:03:20;;;;;;;39.92;25.20;;;;;;;5.24;100.00;100102.41;5085940;28;20024;-77
2024/02/24 06:05:45;;;;;;;35.60;20.98;;;;;;;5.26;100.00;100078.44;5086237;28;20563;-78
2024/02/24 06:08:12;;;;;;;38.35;22.42;;;;;;;5.46;100.00;100124.47;5068423;28;20027;-79
2024/02/24 06:10:37;;;;;;;37.15;21.45;;;;;;;5.37;100.00;100096.47;5086238;28;20036;-78
2024/02/24 06:13:04;;;;;;;38.85;22.38;;;;;;;5.81;100.00;100109.59;5086713;28;20058;-78
2024/02/24 06:15:30;;;;;;;39.35;21.20;;;;;;;5.89;100.00;100121.91;5089635;28;20115;-78
2024/02/24 06:17:56;;;;;;;36.63;20.15;;;;;;;5.99;100.00;100133.06;5089837;28;20512;-79
2024/02/24 06:20:21;;;;;;;32.58;19.55;;;;;;;6.12;100.00;100139.50;5089235;28;20024;-78
2024/02/24 06:22:48;;;;;;;36.58;20.13;;;;;;;6.15;100.00;100099.38;5077215;28;20032;-79
2024/02/24 06:25:13;;;;;;;32.60;18.88;;;;;;;6.31;100.00;100125.63;5077995;28;20036;-79
2024/02/24 06:27:39;;;;;;;31.35;18.98;;;;;;;6.35;100.00;100104.88;5089229;28;20511;-78
2024/02/24 06:30:06;;;;;;;31.05;19.52;;;;;;;6.68;100.00;100150.22;5078635;28;20481;-78
2024/02/24 06:32:31;;;;;;;33.50;19.45;;;;;;;6.76;100.00;100139.50;5088660;28;20046;-78
2024/02/24 06:34:57;;;;;;;32.15;19.27;;;;;;;6.87;100.00;100108.16;5090276;28;20028;-79
2024/02/24 06:37:22;;;;;;;30.33;19.95;;;;;;;7.19;99.00;100123.47;5089139;28;20509;-80
2024/02/24 06:39:48;;;;;;;30.00;18.20;;;;;;;7.08;96.59;100099.31;5089241;28;20195;-80
2024/02/24 06:42:13;;;;;;;29.67;18.17;;;;;;;7.22;97.75;100101.84;5089699;28;20028;-78
2024/02/24 06:44:39;;;;;;;33.30;17.77;;;;;;;7.56;97.49;100144.44;5089339;28;20038;-79
2024/02/24 06:47:05;;;;;;;31.38;18.05;;;;;;;7.61;94.86;100099.56;5089195;28;20024;-78
2024/02/24 06:49:31;;;;;;;31.85;18.30;;;;;;;7.77;97.58;100130.25;5078814;28;20142;-79
2024/02/24 06:51:56;;;;;;;34.30;19.85;;;;;;;7.64;97.73;100153.09;5090326;28;20027;-77
2024/02/24 06:54:22;;;;;;;31.35;17.50;;;;;;;7.63;95.91;100138.16;5085754;28;20622;-79
2024/02/24 06:56:47;;;;;;;33.50;19.33;;;;;;;7.82;97.79;100146.41;5088276;28;20050;-79
2024/02/24 06:59:13;;;;;;;33.53;19.35;;;;;;;7.79;95.38;100114.94;5089742;28;20020;-79
2024/02/24 07:01:38;;;;;;;31.67;19.40;;;;;;;8.12;95.08;100160.19;5088452;28;20039;-78
2024/02/24 07:04:04;;;;;;;32.08;19.40;;;;;;;8.21;97.88;100160.81;5088162;28;20016;-80
2024/02/24 07:06:29;;;;;;;31.48;19.08;;;;;;;8.33;94.58;100155.72;5087913;28;20024;-78
2024/02/24 07:08:55;;;;;;;33.97;19.27;;;;;;;8.27;95.67;100135.28;5088230;28;20020;-80
2024/02/24 07:11:20;;;;;;;31.45;18.58;;;;;;;8.39;97.87;100138.97;5078943;28;20054;-79
2024/02/24 07:13:46;;;;;;;32.50;19.25;;;;;;;8.30;96.61;100114.44;5089107;28;20039;-79
2024/02/24 07:16:13;;;;;;;35.13;19.45;;;;;;;8.88;95.17;100152.94;5088175;28;20020;-79
2024/02/24 07:18:39;;;;;;;29.08;19.27;;;;;;;9.00;95.49;100156.63;5089654;28;20481;-79
2024/02/24 07:21:05;;;;;;;29.73;17.75;;;;;;;8.91;93.66;100110.81;5088893;28;20046;-80
2024/02/24 07:23:30;;;;;;;29.90;19.40;;;;;;;9.19;93.73;100144.31;5088866;28;20053;-78
2024/02/24 07:25:56;;;;;;;32.50;19.58;;;;;;;9.57;92.13;100136.41;5089078;28;20059;-80
2024/02/24 07:28:21;;;;;;;29.95;18.67;;;;;;;9.52;91.34;100162.88;5068675;28;20346;-79
2024/02/24 07:30:48;;;;;;;30.25;18.98;;;;;;;9.95;89.02;100148.97;5068632;28;20032;-79
2024/02/24 07:33:13;;;;;;;25.67;17.13;;;;;;;9.89;91.60;100133.84;5068373;28;20056;-79
2024/02/24 07:35:39;;;;;;;26.92;18.00;;;;;;;9.99;90.88;100174.16;5068279;28;20028;-79
2024/02/24 07:38:04;;;;;;;26.85;17.52;;;;;;;9.44;94.79;100120.50;5068052;28;20513;-80
2024/02/24 07:40:30;;;;;;;28.90;17.83;;;;;;;9.68;93.58;100128.81;5068079;28;20024;-79
2024/02/24 07:42:55;;;;;;;28.30;17.60;;;;;;;10.19;90.74;100154.56;5068377;28;20107;-79
2024/02/24 07:45:25;;;;;;;25.75;16.70;;;;;;;10.10;91.62;100153.22;5067839;28;20034;-78
2024/02/24 07:47:51;;;;;;;26.23;17.35;;;;;;;10.38;90.26;100163.50;5068364;28;20024;-79
2024/02/24 07:50:17;;;;;;;26.75;17.17;;;;;;;10.86;88.30;100166.44;5068745;28;20039;-78
2024/02/24 07:52:42;;;;;;;23.73;15.98;;;;;;;10.60;89.72;100153.31;5066686;28;20036;-78
2024/02/24 07:55:08;;;;;;;24.35;15.40;;;;;;;10.45;90.95;100138.44;5067553;28;20017;-79
2024/02/24 07:57:33;;;;;;;25.40;15.77;;;;;;;10.67;89.23;100140.75;5067621;28;20025;-79
2024/02/24 07:59:59;;;;;;;22.38;15.00;;;;;;;10.80;89.17;100145.97;5067793;28;20029;-79
2024/02/24 08:02:24;;;;;;;24.23;15.68;;;;;;;10.99;86.62;100149.50;5068022;28;20039;-78
2024/02/24 08:04:50;;;;;;;26.13;16.17;;;;;;;11.45;84.62;100177.59;5067668;28;20107;-79
2024/02/24 08:07:15;;;;;;;22.83;15.48;;;;;;;11.65;83.76;100180.03;5067167;28;20021;-79
2024/02/24 08:09:40;;;;;;;25.67;15.57;;;;;;;11.54;84.04;100159.41;5067980;28;20032;-79
2024/02/24 08:12:06;;;;;;;22.15;15.38;;;;;;;11.54;86.39;100161.25;5068145;28;20036;-78
2024/02/24 08:14:31;;;;;;;22.10;15.05;;;;;;;11.52;85.57;100160.66;5067331;28;20387;-80
2024/02/24 08:16:59;;;;;;;25.17;15.07;;;;;;;11.91;85.63;100166.63;5067300;28;20035;-79
2024/02/24 08:19:24;;;;;;;29.00;16.55;;;;;;;12.44;82.85;100174.75;5067842;28;20054;-80
2024/02/24 08:21:50;;;;;;;27.00;17.30;;;;;;;12.44;81.38;100153.34;5067177;28;20024;-79
2024/02/24 08:24:16;;;;;;;26.52;16.80;;;;;;;13.40;74.82;100173.78;5067513;28;20040;-79
2024/02/24 08:26:44;;;;;;;26.83;18.75;;;;;;;13.56;75.23;100170.38;5065655;28;20560;-78
2024/02/24 08:29:10;;;;;;;28.70;18.55;;;;;;;13.91;74.52;100200.84;5067469;28;20817;-78
2024/02/24 08:31:36;;;;;;;20.30;13.88;;;;;;;13.68;72.05;100142.75;5066944;28;20094;-77
2024/02/24 08:34:02;;;;;;;19.60;13.32;;;;;;;13.78;73.87;100185.84;5067435;28;20115;-78
2024/02/24 08:36:27;;;;;;;24.83;16.65;;;;;;;13.42;75.86;100150.25;5064843;28;20038;-77
2024/02/24 08:38:53;;;;;;;24.67;15.68;;;;;;;13.76;74.79;100177.22;5067156;28;20103;-79
2024/02/24 08:41:18;;;;;;;21.30;13.93;;;;;;;14.13;72.58;100176.88;5066901;28;20036;-78
2024/02/24 08:43:44;;;;;;;22.30;13.93;;;;;;;14.21;71.90;100197.94;5065526;28;20028;-79
2024/02/24 08:46:09;;;;;;;22.95;14.55;;;;;;;13.98;74.78;100182.78;5066508;28;20036;-78
2024/02/24 08:48:35;;;;;;;20.25;13.05;;;;;;;14.17;73.95;100148.53;5066677;28;20032;-78
2024/02/24 08:51:00;;;;;;;22.40;12.93;;;;;;;14.40;72.41;100167.16;5065495;28;20501;-78
2024/02/24 08:53:26;;;;;;;17.88;12.98;;;;;;;14.65;71.98;100177.56;5066787;28;20028;-78
2024/02/24 08:55:51;;;;;;;19.77;14.07;;;;;;;14.81;72.39;100185.88;5066800;28;20024;-77
2024/02/24 08:58:17;;;;;;;21.20;13.20;;;;;;;14.99;70.99;100184.81;5066838;28;20031;-78
2024/02/24 09:00:43;;;;;;;18.00;12.70;;;;;;;15.12;69.46;100146.88;5066652;28;20404;-78
2024/02/24 09:03:08;;;;;;;20.15;13.23;;;;;;;15.24;69.30;100177.16;5066805;28;20020;-78
2024/02/24 09:05:34;;;;;;;17.38;11.23;;;;;;;14.91;72.65;100183.34;5066128;28;20140;-78
2024/02/24 09:07:59;;;;;;;17.75;11.30;;;;;;;15.35;71.44;100150.41;5065865;28;20408;-77
2024/02/24 09:10:24;;;;;;;18.13;10.40;;;;;;;15.35;71.98;100161.16;5065893;28;20032;-77
2024/02/24 09:12:50;;;;;;;15.63;9.68;;;;;;;15.37;70.98;100164.41;5066218;28;20408;-78
2024/02/24 09:15:15;;;;;;;17.23;11.23;;;;;;;15.90;69.54;100184.47;5066363;28;20037;-78
2024/02/24 09:17:41;;;;;;;17.92;11.43;;;;;;;15.92;68.15;100174.28;5066018;28;20064;-77
2024/02/24 09:20:08;;;;;;;14.20;9.48;;;;;;;16.15;67.44;100164.31;5066142;28;20093;-78
2024/02/24 09:22:35;;;;;;;12.90;8.45;;;;;;;16.07;68.34;100160.19;5065887;28;20028;-78
2024/02/24 09:25:00;;;;;;;13.65;8.05;;;;;;;16.29;67.52;100149.38;5064572;28;20020;-77
2024/02/24 09:27:26;;;;;;;13.13;7.70;;;;;;;16.48;66.28;100145.22;5078158;28;20369;-78
2024/02/24 09:29:51;;;;;;;10.30;6.15;;;;;;;16.74;63.72;100161.59;5086490;28;20122;-78
2024/02/24 09:32:17;;;;;;;10.52;6.40;;;;;;;16.93;63.95;100148.56;5086522;28;20342;-77
2024/02/24 09:34:44;;;;;;;9.88;6.07;;;;;;;17.30;62.11;100141.53;5086821;28;20059;-78
2024/02/24 09:37:10;;;;;;;10.10;5.90;;;;;;;17.43;60.81;100135.69;5086178;28;20070;-78
2024/02/24 09:39:40;;;;;;;17.25;7.90;;;;;;;17.57;61.93;100139.50;5086218;28;20111;-78
2024/02/24 09:42:09;;;;;;;8.27;4.35;;;;;;;18.03;56.62;100149.66;5086676;28;20024;-78
2024/02/24 09:44:34;;;;;;;8.38;4.25;;;;;;;17.98;56.46;100153.16;5086862;28;20166;-78
2024/02/24 09:47:02;;;;;;;7.22;4.47;;;;;;;18.44;54.42;100150.53;5086437;28;20062;-79
2024/02/24 09:49:30;;;;;;;6.30;4.22;;;;;;;19.01;52.70;100161.38;5089298;28;20024;-78
2024/02/24 09:51:55;;;;;;;6.78;4.30;;;;;;;18.83;51.10;100160.03;5090708;28;20110;-78
2024/02/24 09:54:21;;;;;;;6.32;3.88;;;;;;;18.94;50.94;100137.31;5072373;28;20028;-77
2024/02/24 09:56:51;;;;;;;6.95;3.72;;;;;;;18.79;49.50;100115.72;5090490;28;20514;-78
2024/02/24 09:59:17;;;;;;;5.90;3.38;;;;;;;19.18;48.29;100148.34;5090621;28;20489;-77
2024/02/24 10:01:47;;;;;;;6.47;3.97;;;;;;;19.49;48.43;100140.13;5072518;28;20055;-79
2024/02/24 10:04:13;;;;;;;10.18;4.60;;;;;;;19.82;47.66;100118.94;5090893;28;20567;-77
2024/02/24 10:06:43;;;;;;;7.18;3.97;;;;;;;20.00;47.69;100139.94;5072505;28;20522;-80
2024/02/24 10:09:09;;;;;;;6.25;3.75;;;;;;;20.34;46.00;100112.09;5090663;28;20020;-79
2024/02/24 10:11:36;;;;;;;6.75;3.30;;;;;;;20.28;44.96;100115.91;5090872;28;20024;-77
2024/02/24 10:14:02;;;;;;;5.00;2.60;;;;;;;20.14;43.25;100123.06;5090725;28;20031;-79
2024/02/24 10:16:28;;;;;;;5.82;3.63;;;;;;;20.60;44.76;100128.97;5090218;28;20067;-79
2024/02/24 10:18:53;;;;;;;6.47;3.30;;;;;;;20.92;44.37;100113.22;5090556;28;20085;-79
2024/02/24 10:21:18;;;;;;;7.70;4.40;;;;;;;21.02;42.41;100092.25;5090419;28;20020;-78
2024/02/24 10:23:48;;;;;;;4.30;2.60;;;;;;;21.13;40.18;100117.34;5072235;28;20078;-77
2024/02/24 10:26:14;;;;;;;5.05;2.40;;;;;;;21.09;40.81;100108.19;5089919;28;20428;-79
2024/02/24 10:28:40;;;;;;;4.80;2.20;;;;;;;21.33;39.36;100123.63;5090431;28;20468;-78
2024/02/24 10:31:06;;;;;;;4.63;2.40;;;;;;;21.73;38.99;100116.13;5090633;28;20115;-78
2024/02/24 10:33:34;;;;;;;4.63;1.80;;;;;;;21.84;37.40;100112.97;5090228;28;20035;-79
2024/02/24 10:36:01;;;;;;;2.67;1.70;;;;;;;22.03;35.54;100096.69;5090764;28;20111;-78
2024/02/24 10:38:29;;;;;;;3.10;1.88;;;;;;;22.02;33.88;100105.91;5090362;28;20538;-78
2024/02/24 10:40:56;;;;;;;;;;;;;;;21.48;34.78;100104.50;5091998;28;20040;-77
2024/02/24 10:43:24;;;;;;;3.03;1.63;;;;;;;21.32;34.32;100084.06;5093881;28;20358;-78
2024/02/24 10:45:50;;;;;;;3.33;2.10;;;;;;;22.01;34.44;100079.88;5096551;28;20039;-77
2024/02/24 10:48:15;;;;;;;3.35;1.70;;;;;;;22.43;33.94;100080.06;5097646;28;20032;-79
2024/02/24 10:50:44;;;;;;;3.30;1.60;;;;;;;21.56;33.94;100062.34;5097602;28;20056;-78
2024/02/24 10:53:12;;;;;;;3.83;1.48;;;;;;;22.51;32.36;100075.84;5099121;28;20020;-78
2024/02/24 10:55:39;;;;;;;4.28;2.28;;;;;;;22.67;32.47;100075.28;5098911;28;20038;-79
2024/02/24 10:58:05;;;;;;;3.45;1.80;;;;;;;22.21;33.90;100080.66;5098848;28;20078;-77
2024/02/24 11:00:32;;;;;;;3.45;1.98;;;;;;;22.75;32.55;100070.25;5096802;28;20088;-79
2024/02/24 11:02:59;;;;;;;2.63;1.75;;;;;;;23.12;32.09;100068.50;5097994;28;20020;-78
2024/02/24 11:05:25;;;;;;;3.27;1.87;;;;;;;23.53;30.87;100079.34;5098939;28;20040;-78
2024/02/24 11:07:51;;;;;;;2.63;1.73;;;;;;;23.46;30.46;100057.19;5097512;28;20032;-78
2024/02/24 11:10:20;;;;;;;3.80;2.00;;;;;;;23.66;29.94;100078.53;5096992;28;20070;-79